Time;durP1;ratioP1;P1;durP2;ratioP2;P2;SDS_P1;SDS_P2;PMS_P1;PMS_P2;Temp;Humidity;BMP_temperature;BMP_pressure;BME280_temperature;BME280_humidity;BME280_pressure;Samples;Min_cycle;Max_cycle;Signal;HPM_P1;HPM_P2
2024/01/10 00:01:33;;;;;;;4.78;2.75;;;;;;;-0.81;69.33;98790.84;5071185;28;20097;-80
2024/01/10 00:03:59;;;;;;;4.65;2.90;;;;;;;-0.79;69.58;98772.16;5073715;28;20074;-77
2024/01/10 00:06:26;;;;;;;3.60;2.42;;;;;;;-0.80;70.05;98762.75;5072510;28;20036;-73
2024/01/10 00:08:55;;;;;;;3.55;2.00;;;;;;;-0.80;69.60;98759.38;5068363;28;20041;-74
2024/01/10 00:11:23;;;;;;;2.78;1.80;;;;;;;-0.96;69.94;98718.16;5068758;28;20072;-74
2024/01/10 00:13:50;;;;;;;3.58;1.88;;;;;;;-0.59;69.58;98763.16;5079832;28;20036;-74
2024/01/10 00:16:18;;;;;;;4.82;2.22;;;;;;;-0.62;69.39;98743.50;5071363;28;20051;-74
2024/01/10 00:18:49;;;;;;;2.83;2.00;;;;;;;-0.62;69.24;98723.94;5066019;28;20119;-76
2024/01/10 00:21:15;;;;;;;3.30;2.03;;;;;;;-0.69;69.83;98716.13;5073827;28;20036;-77
2024/01/10 00:23:44;;;;;;;2.88;1.63;;;;;;;-0.97;69.76;98654.28;5063717;28;20037;-74
2024/01/10 00:26:10;;;;;;;2.95;1.75;;;;;;;-0.56;69.39;98704.44;5064434;28;20045;-76
2024/01/10 00:28:37;;;;;;;3.88;1.73;;;;;;;-0.35;69.46;98742.31;5073216;28;20044;-74
2024/01/10 00:31:03;;;;;;;1.85;1.30;;;;;;;-0.43;70.03;98720.84;5066993;28;20096;-73
2024/01/10 00:33:32;;;;;;;2.55;1.40;;;;;;;-0.28;70.02;98735.59;5070714;28;20036;-74
2024/01/10 00:35:58;;;;;;;3.00;1.70;;;;;;;-0.32;69.86;98720.19;5068453;28;20048;-73
2024/01/10 00:38:24;;;;;;;5.70;1.60;;;;;;;-0.25;69.97;98725.44;5083926;28;20444;-73
2024/01/10 00:40:50;;;;;;;1.83;1.40;;;;;;;-0.47;70.27;98676.47;5073310;28;20041;-74
2024/01/10 00:43:19;;;;;;;2.88;1.77;;;;;;;-0.50;69.97;98661.09;5092411;28;20066;-74
2024/01/10 00:45:45;;;;;;;2.75;1.55;;;;;;;-0.30;70.07;98689.56;5057480;28;20055;-75
2024/01/10 00:48:14;;;;;;;3.35;2.03;;;;;;;-0.23;70.15;98701.63;5088492;28;20035;-74
2024/01/10 00:50:40;;;;;;;3.33;2.05;;;;;;;-0.08;69.62;98726.56;5091200;28;20048;-74
2024/01/10 00:53:06;;;;;;;2.30;1.65;;;;;;;-0.23;70.31;98688.84;5078696;28;20050;-74
2024/01/10 00:55:32;;;;;;;3.67;1.63;;;;;;;-0.17;70.22;98695.75;5089112;28;20059;-74
2024/01/10 00:58:01;;;;;;;5.72;3.05;;;;;;;0.07;70.61;98743.03;5077315;28;20043;-75
2024/01/10 01:00:34;;;;;;;3.05;1.90;;;;;;;-0.01;70.53;98715.63;5080662;28;20575;-76
2024/01/10 01:03:03;;;;;;;5.25;2.58;;;;;;;-0.09;71.02;98699.28;5094571;28;20031;-76
2024/01/10 01:05:29;;;;;;;4.03;2.40;;;;;;;0.15;70.70;98726.09;5080721;28;20044;-77
2024/01/10 01:07:55;;;;;;;3.42;1.77;;;;;;;0.12;70.82;98723.47;5094966;28;20057;-76
2024/01/10 01:10:21;;;;;;;5.68;2.90;;;;;;;-0.07;71.29;98701.88;5082256;28;20040;-76
2024/01/10 01:12:48;;;;;;;3.90;1.48;;;;;;;0.01;71.05;98697.72;5114213;28;20045;-72
2024/01/10 01:15:17;;;;;;;2.67;1.75;;;;;;;0.16;71.00;98734.66;5068221;28;20043;-73
2024/01/10 01:17:51;;;;;;;2.28;1.40;;;;;;;-0.01;71.05;98707.94;5078862;28;20050;-74
2024/01/10 01:20:19;;;;;;;3.97;2.10;;;;;;;-0.18;70.67;98683.81;5097114;28;20039;-73
2024/01/10 01:22:54;;;;;;;5.32;1.92;;;;;;;0.11;71.16;98732.03;5079460;28;20486;-72
2024/01/10 01:25:21;;;;;;;2.25;1.48;;;;;;;0.31;71.41;98754.50;5095389;28;20081;-72
2024/01/10 01:27:47;;;;;;;2.10;1.52;;;;;;;0.17;70.46;98726.97;5095889;28;20032;-72
2024/01/10 01:30:13;;;;;;;2.30;1.38;;;;;;;0.02;70.56;98680.69;5094866;28;20047;-72
2024/01/10 01:32:48;;;;;;;2.00;1.42;;;;;;;-0.21;71.20;98651.34;5111993;28;20508;-72
2024/01/10 01:35:14;;;;;;;2.95;1.30;;;;;;;0.22;70.94;98740.72;5093887;28;20474;-71
2024/01/10 01:37:49;;;;;;;1.52;1.00;;;;;;;0.16;70.81;98732.94;5078869;28;20654;-75
2024/01/10 01:40:16;;;;;;;2.20;1.05;;;;;;;-0.01;71.28;98713.06;5071758;28;20150;-70
2024/01/10 01:42:45;;;;;;;1.30;1.10;;;;;;;0.02;71.36;98727.59;5074729;28;20049;-73
2024/01/10 01:45:16;;;;;;;2.13;1.40;;;;;;;-0.35;71.44;98670.72;5072750;28;20067;-73
2024/01/10 01:47:52;;;;;;;1.95;1.20;;;;;;;-0.40;71.19;98662.97;5084757;28;20052;-73
2024/01/10 01:50:18;;;;;;;2.58;1.30;;;;;;;0.11;71.68;98748.22;5075694;28;20060;-72
2024/01/10 01:55:34;;;;;;;1.55;0.95;;;;;;;0.38;71.27;98771.66;5059971;28;20498;-71
2024/01/10 01:58:00;;;;;;;2.47;1.13;;;;;;;0.32;70.67;98808.25;5074241;28;20048;-71
2024/01/10 02:00:26;;;;;;;2.25;1.27;;;;;;;0.42;71.86;98824.63;5070877;28;20093;-73
2024/01/10 02:02:55;;;;;;;1.42;1.08;;;;;;;0.35;71.23;98820.25;5041202;28;20097;-71
2024/01/10 02:05:20;;;;;;;1.15;0.80;;;;;;;0.23;71.44;98815.78;5073986;28;20104;-72
2024/01/10 02:07:49;;;;;;;1.02;0.70;;;;;;;0.12;70.65;98836.06;5078084;28;20051;-72
2024/01/10 02:10:19;;;;;;;0.85;0.60;;;;;;;-0.17;71.57;98813.38;5068800;28;20033;-70
2024/01/10 02:12:48;;;;;;;0.55;0.47;;;;;;;-0.04;71.99;98843.47;5069899;28;20053;-69
2024/01/10 02:15:17;;;;;;;3.35;0.80;;;;;;;-0.15;71.16;98852.66;5071814;28;20063;-70
2024/01/10 02:17:44;;;;;;;1.10;0.80;;;;;;;-0.08;72.23;98859.59;5055225;28;20135;-71
2024/01/10 02:20:12;;;;;;;0.68;0.50;;;;;;;-0.19;72.16;98858.53;5069230;28;20089;-70
2024/01/10 02:22:41;;;;;;;2.00;0.50;;;;;;;-0.36;71.63;98846.28;5036421;28;20174;-70
2024/01/10 02:25:12;;;;;;;0.60;0.50;;;;;;;-0.10;72.19;98891.94;5067474;28;20447;-69
2024/01/10 02:27:39;;;;;;;1.10;0.43;;;;;;;-0.16;71.67;98877.34;5072988;28;20136;-70
2024/01/10 02:30:09;;;;;;;0.68;0.50;;;;;;;-0.22;72.05;98871.25;5068099;28;20048;-70
2024/01/10 02:32:36;;;;;;;0.68;0.60;;;;;;;-0.18;72.12;98904.56;5069141;28;20063;-71
2024/01/10 02:35:03;;;;;;;0.60;0.40;;;;;;;-0.13;71.60;98917.47;5066928;28;20035;-70
2024/01/10 02:37:31;;;;;;;0.35;0.35;;;;;;;-0.33;71.47;98925.56;5065962;28;20040;-71
2024/01/10 02:39:58;;;;;;;1.65;0.32;;;;;;;-0.78;71.23;98877.78;5057366;28;20410;-70
2024/01/10 02:42:28;;;;;;;3.63;0.63;;;;;;;-0.94;71.87;98874.88;5066967;28;20052;-71
2024/01/10 02:44:54;;;;;;;1.10;0.43;;;;;;;-0.66;72.20;98931.69;5082912;28;20042;-70
2024/01/10 02:47:20;;;;;;;0.60;0.50;;;;;;;-0.49;71.70;98951.66;5084004;28;20050;-71
2024/01/10 02:49:47;;;;;;;1.02;0.73;;;;;;;-0.63;71.93;98938.56;5088197;28;20036;-70
2024/01/10 02:52:13;;;;;;;1.42;0.80;;;;;;;-0.59;72.04;98957.41;5085354;28;20504;-71
2024/01/10 02:54:39;;;;;;;0.70;0.57;;;;;;;-0.44;71.76;98987.56;5088258;28;20371;-71
2024/01/10 02:57:06;;;;;;;1.13;0.82;;;;;;;-0.54;71.26;98997.56;5084296;28;20048;-71
2024/01/10 02:59:31;;;;;;;1.10;0.65;;;;;;;-0.57;71.93;99012.81;5084084;28;20040;-70
2024/01/10 03:02:00;;;;;;;0.50;0.50;;;;;;;-0.70;72.08;99010.81;5085237;28;20072;-71
2024/01/10 03:04:26;;;;;;;0.73;0.60;;;;;;;-0.64;71.67;99036.50;5071107;28;20040;-70
2024/01/10 03:06:52;;;;;;;2.25;1.10;;;;;;;-0.84;72.07;99010.47;5087838;28;20410;-70
2024/01/10 03:09:36;;;;;;;0.70;0.60;;;;;;;-0.68;72.33;99050.91;5070109;28;20446;-69
2024/01/10 03:12:02;;;;;;;5.68;2.42;;;;;;;-0.83;71.21;99047.97;5067336;28;20047;-71
2024/01/10 03:14:28;;;;;;;4.15;2.92;;;;;;;-1.28;70.39;99032.38;5066455;28;21892;-72
2024/01/10 03:16:54;;;;;;;6.70;3.35;;;;;;;-1.20;71.65;99086.19;5086323;28;20032;-70
2024/01/10 03:19:20;;;;;;;5.05;2.97;;;;;;;-1.32;71.23;99107.16;5059408;28;20112;-72
2024/01/10 03:21:46;;;;;;;7.85;3.47;;;;;;;-1.67;71.28;99095.13;5088490;28;20533;-79
2024/01/10 03:24:12;;;;;;;5.45;3.15;;;;;;;-1.96;71.25;99096.81;5087268;28;20163;-77
2024/01/10 03:26:38;;;;;;;6.60;3.50;;;;;;;-2.04;71.60;99139.03;5069267;28;20032;-78
2024/01/10 03:29:08;;;;;;;10.77;4.63;;;;;;;-2.41;70.72;99138.72;5070505;28;20039;-78
2024/01/10 03:31:34;;;;;;;8.75;3.97;;;;;;;-2.35;71.08;99181.41;5071115;28;20971;-76
2024/01/10 03:34:03;;;;;;;9.13;4.38;;;;;;;-2.47;71.23;99197.16;5050418;28;20036;-76
2024/01/10 03:36:33;;;;;;;9.52;5.40;;;;;;;-2.63;71.27;99177.94;5068152;28;20570;-78
2024/01/10 03:39:02;;;;;;;11.57;5.97;;;;;;;-2.83;70.94;99178.13;5060578;28;20028;-78
2024/01/10 03:41:30;;;;;;;15.05;6.85;;;;;;;-2.90;70.65;99207.59;5074578;28;20048;-77
2024/01/10 03:43:56;;;;;;;15.05;6.82;;;;;;;-3.09;71.15;99190.78;5084363;28;20073;-78
2024/01/10 03:46:25;;;;;;;12.70;6.25;;;;;;;-3.06;70.93;99215.47;5087110;28;20070;-78
2024/01/10 03:48:52;;;;;;;11.90;5.72;;;;;;;-3.18;70.78;99231.16;5070062;28;20047;-77
2024/01/10 03:51:21;;;;;;;13.13;6.28;;;;;;;-3.14;70.99;99261.03;5059965;28;20039;-77
2024/01/10 03:53:49;;;;;;;13.07;5.97;;;;;;;-3.42;71.10;99254.88;5087684;28;20040;-75
2024/01/10 03:56:17;;;;;;;11.32;5.53;;;;;;;-3.58;70.51;99278.00;5082166;28;20036;-75
2024/01/10 03:58:50;;;;;;;12.07;6.13;;;;;;;-4.05;70.42;99265.09;5083117;28;20043;-74
2024/01/10 04:01:23;;;;;;;11.48;5.57;;;;;;;-3.91;71.19;99313.97;5072161;28;20556;-74
2024/01/10 04:03:49;;;;;;;11.18;5.47;;;;;;;-3.95;71.15;99328.22;5071191;28;20036;-73
2024/01/10 04:06:16;;;;;;;11.10;5.68;;;;;;;-4.15;71.02;99309.59;5067151;28;20470;-70
2024/01/10 04:08:42;;;;;;;10.98;6.35;;;;;;;-4.00;71.49;99339.88;5085701;28;20040;-72
2024/01/10 04:11:09;;;;;;;16.42;7.63;;;;;;;-4.08;70.87;99349.72;5085943;28;20032;-68
2024/01/10 04:13:35;;;;;;;14.30;7.25;;;;;;;-4.15;70.30;99373.16;5078099;28;20035;-68
2024/01/10 04:16:04;;;;;;;16.90;7.90;;;;;;;-4.47;70.67;99343.00;5067494;28;20040;-72
2024/01/10 04:18:33;;;;;;;13.93;7.47;;;;;;;-4.32;70.17;99407.97;5085313;28;20059;-72
2024/01/10 04:21:09;;;;;;;13.05;6.90;;;;;;;-4.60;70.89;99388.94;5084645;28;20089;-72
2024/01/10 04:23:39;;;;;;;15.95;7.40;;;;;;;-4.57;70.35;99427.19;5086950;28;20048;-71
2024/01/10 04:26:08;;;;;;;13.20;6.88;;;;;;;-4.64;70.90;99423.50;5076947;28;20039;-73
2024/01/10 04:28:34;;;;;;;12.10;6.43;;;;;;;-5.02;70.53;99397.22;5086720;28;20036;-73
2024/01/10 04:31:02;;;;;;;13.85;6.85;;;;;;;-4.71;70.90;99464.63;5084377;28;20041;-74
2024/01/10 04:33:28;;;;;;;17.23;6.47;;;;;;;-4.97;70.92;99438.91;5055622;28;20118;-73
2024/01/10 04:35:54;;;;;;;11.77;5.82;;;;;;;-5.10;70.68;99465.38;5083363;28;20091;-74
2024/01/10 04:38:26;;;;;;;13.52;5.70;;;;;;;-5.01;71.60;99490.31;5067371;28;20032;-72
2024/01/10 04:40:54;;;;;;;15.68;6.47;;;;;;;-5.03;70.83;99502.06;5071933;28;20048;-73
2024/01/10 04:43:23;;;;;;;12.30;6.10;;;;;;;-5.13;70.82;99513.44;5076906;28;20035;-70
2024/01/10 04:45:55;;;;;;;10.85;5.53;;;;;;;-5.20;70.83;99507.19;5082032;28;20621;-72
2024/01/10 04:48:24;;;;;;;12.15;4.90;;;;;;;-5.28;70.47;99521.16;5076159;28;20044;-71
2024/01/10 04:50:55;;;;;;;8.70;4.70;;;;;;;-5.57;70.35;99507.84;5078543;28;20149;-70
2024/01/10 04:53:22;;;;;;;8.50;4.63;;;;;;;-6.23;70.36;99431.84;5091335;28;20566;-71
2024/01/10 04:55:48;;;;;;;10.88;4.95;;;;;;;-5.67;70.54;99531.88;5096280;28;20039;-72
2024/01/10 04:58:14;;;;;;;8.98;4.47;;;;;;;-5.52;71.26;99549.53;5079116;28;20059;-71
2024/01/10 05:00:40;;;;;;;10.57;5.07;;;;;;;-5.57;70.93;99547.56;5110139;28;20047;-71
2024/01/10 05:03:09;;;;;;;10.02;4.47;;;;;;;-5.41;71.14;99565.31;5078542;28;20048;-71
2024/01/10 05:05:44;;;;;;;7.10;3.70;;;;;;;-5.44;71.50;99560.06;5110189;28;20039;-72
2024/01/10 05:08:11;;;;;;;10.93;4.22;;;;;;;-5.71;70.94;99536.72;5076313;28;20529;-71
2024/01/10 05:10:37;;;;;;;7.97;4.47;;;;;;;-5.79;70.67;99544.78;5079982;28;20554;-71
2024/01/10 05:13:06;;;;;;;8.48;4.45;;;;;;;-5.57;70.68;99593.22;5079090;28;20044;-71
2024/01/10 05:15:37;;;;;;;8.77;4.22;;;;;;;-5.81;69.28;99578.44;5042822;28;20044;-70
2024/01/10 05:18:10;;;;;;;8.68;4.25;;;;;;;-6.11;70.69;99554.13;5091007;28;20425;-72
2024/01/10 05:20:36;;;;;;;8.10;3.83;;;;;;;-6.28;70.43;99564.97;5080970;28;20035;-71
2024/01/10 05:23:02;;;;;;;8.75;4.38;;;;;;;-6.07;70.33;99623.56;5110038;28;20067;-70
2024/01/10 05:25:31;;;;;;;10.60;4.93;;;;;;;-6.17;70.34;99645.00;5109342;28;20044;-72
2024/01/10 05:27:58;;;;;;;8.45;4.25;;;;;;;-6.15;70.93;99642.53;5075456;28;20039;-72
2024/01/10 05:30:25;;;;;;;8.82;4.15;;;;;;;-6.20;70.46;99644.81;5092244;28;20036;-71
2024/01/10 05:32:54;;;;;;;7.78;3.80;;;;;;;-6.46;70.20;99634.09;5091677;28;20040;-71
2024/01/10 05:35:25;;;;;;;8.40;3.60;;;;;;;-6.33;70.11;99676.19;5109384;28;20067;-70
2024/01/10 05:37:52;;;;;;;8.10;3.78;;;;;;;-6.73;70.39;99619.06;5092849;28;20047;-70
2024/01/10 05:40:18;;;;;;;8.30;3.83;;;;;;;-6.48;70.51;99667.72;5074302;28;20039;-71
2024/01/10 05:42:49;;;;;;;9.10;4.63;;;;;;;-6.36;70.09;99679.44;5091279;28;20051;-70
2024/01/10 05:45:17;;;;;;;6.85;3.63;;;;;;;-6.52;69.87;99676.81;5092343;28;20439;-70
2024/01/10 05:47:44;;;;;;;9.02;4.00;;;;;;;-6.39;70.35;99704.56;5078130;28;20497;-70
2024/01/10 05:50:10;;;;;;;10.93;4.78;;;;;;;-6.42;70.41;99703.53;5070668;28;20093;-71
2024/01/10 05:52:39;;;;;;;9.45;4.25;;;;;;;-6.47;69.62;99695.66;5062538;28;20036;-70
2024/01/10 05:55:08;;;;;;;8.05;3.80;;;;;;;-6.45;69.78;99713.47;5095043;28;20052;-71
2024/01/10 05:57:40;;;;;;;7.75;3.60;;;;;;;-6.54;69.53;99698.63;5077243;28;20542;-71
2024/01/10 06:00:09;;;;;;;8.02;4.10;;;;;;;-6.39;69.78;99719.75;5090145;28;20069;-71
2024/01/10 06:02:40;;;;;;;8.63;4.22;;;;;;;-6.54;69.78;99696.09;5093435;28;20040;-70
2024/01/10 06:05:12;;;;;;;9.32;4.40;;;;;;;-6.27;69.40;99756.69;5109086;28;20043;-71
2024/01/10 06:07:43;;;;;;;10.25;4.60;;;;;;;-6.32;69.75;99760.66;5076715;28;20039;-72
2024/01/10 06:10:18;;;;;;;7.28;4.40;;;;;;;-6.84;69.73;99708.69;5109137;28;20060;-72
2024/01/10 06:12:44;;;;;;;7.97;4.18;;;;;;;-6.55;69.04;99755.97;5095909;28;20036;-72
2024/01/10 06:15:12;;;;;;;8.55;4.45;;;;;;;-6.39;68.91;99794.84;5091579;28;20417;-71
2024/01/10 06:17:39;;;;;;;9.98;4.55;;;;;;;-6.67;69.44;99761.19;5109175;28;20044;-72
2024/01/10 06:20:08;;;;;;;7.88;4.32;;;;;;;-6.51;68.95;99805.16;5090877;28;20064;-73
2024/01/10 06:22:38;;;;;;;8.93;4.60;;;;;;;-6.61;69.16;99815.50;5075257;28;20166;-71
2024/01/10 06:25:13;;;;;;;9.52;4.53;;;;;;;-6.57;69.34;99827.56;5093046;28;20557;-72
2024/01/10 06:27:58;;;;;;;12.43;4.68;;;;;;;-6.49;69.33;99843.22;5097315;28;20039;-71
2024/01/10 06:30:36;;;;;;;7.43;3.75;;;;;;;-6.51;69.25;99848.22;5073907;28;20053;-69
2024/01/10 06:33:11;;;;;;;7.68;3.70;;;;;;;-6.53;68.66;99858.22;5094100;28;20055;-69
2024/01/10 06:36:00;;;;;;;8.93;4.53;;;;;;;-6.86;68.75;99807.31;5095393;28;20066;-71
2024/01/10 06:38:28;;;;;;;9.65;4.80;;;;;;;-6.66;69.10;99845.63;5078073;28;20135;-74
2024/01/10 06:40:56;;;;;;;7.40;3.97;;;;;;;-6.73;68.79;99844.34;5063333;28;20040;-73
2024/01/10 06:43:23;;;;;;;9.95;4.50;;;;;;;-6.58;68.64;99884.06;5109560;28;20036;-71
2024/01/10 06:45:52;;;;;;;12.93;4.80;;;;;;;-6.85;69.35;99848.69;5086464;28;20043;-72
2024/01/10 06:48:25;;;;;;;7.22;4.03;;;;;;;-6.56;68.47;99898.56;5113363;28;20040;-71
2024/01/10 06:50:57;;;;;;;8.90;4.40;;;;;;;-6.40;69.57;99897.84;5077864;28;20089;-72
2024/01/10 06:53:24;;;;;;;9.80;4.80;;;;;;;-6.48;69.05;99876.22;5098684;28;20144;-73
2024/01/10 06:55:50;;;;;;;9.15;4.40;;;;;;;-6.38;69.39;99892.84;5090893;28;20146;-73
2024/01/10 06:58:22;;;;;;;8.13;4.30;;;;;;;-6.83;69.13;99829.41;5115076;28;20039;-73
2024/01/10 07:00:50;;;;;;;7.00;3.58;;;;;;;-6.34;68.82;99906.59;5093073;28;20059;-73
2024/01/10 07:03:17;;;;;;;10.10;4.07;;;;;;;-6.89;68.39;99823.94;5078049;28;20035;-73
2024/01/10 07:05:44;;;;;;;7.30;3.75;;;;;;;-6.45;68.84;99916.06;5092363;28;20092;-73
2024/01/10 07:08:10;;;;;;;6.93;3.60;;;;;;;-6.52;70.94;99843.94;5095434;28;20043;-74
2024/01/10 07:10:39;;;;;;;8.35;3.75;;;;;;;-6.16;68.29;99895.03;5110875;28;20044;-74
2024/01/10 07:13:14;;;;;;;8.48;4.28;;;;;;;-6.28;67.43;99899.34;5095626;28;20058;-72
2024/01/10 07:15:43;;;;;;;10.02;4.50;;;;;;;-5.96;68.26;99925.72;5095394;28;20083;-80
2024/01/10 07:18:12;;;;;;;9.77;4.47;;;;;;;-5.95;67.64;99935.94;5061698;28;20044;-73
2024/01/10 07:20:38;;;;;;;8.55;4.40;;;;;;;-6.41;68.54;99845.44;5091555;28;20082;-71
2024/01/10 07:23:05;;;;;;;7.93;3.60;;;;;;;-5.52;67.95;99946.88;5110358;28;20130;-71
2024/01/10 07:25:34;;;;;;;8.18;3.83;;;;;;;-5.21;68.56;99951.13;5075418;28;20139;-70
2024/01/10 07:28:00;;;;;;;6.70;4.10;;;;;;;-4.41;67.64;99949.59;5092819;28;20047;-71
2024/01/10 07:30:27;;;;;;;7.18;4.07;;;;;;;-3.82;66.48;99930.66;5071481;28;20039;-72
2024/01/10 07:32:53;;;;;;;7.93;4.15;;;;;;;-2.59;67.24;99964.56;5073665;28;20048;-72
2024/01/10 07:35:20;;;;;;;7.50;3.97;;;;;;;-1.01;67.14;99915.19;5068428;28;20040;-70
2024/01/10 07:38:04;;;;;;;6.22;3.50;;;;;;;0.53;64.93;99926.75;5062599;28;20048;-70
2024/01/10 07:40:33;;;;;;;7.47;3.42;;;;;;;0.78;63.59;99924.97;5110218;28;20040;-71
2024/01/10 07:43:02;;;;;;;7.05;3.78;;;;;;;0.56;63.42;99969.50;5093529;28;20075;-72
2024/01/10 07:45:34;;;;;;;8.82;3.85;;;;;;;-0.27;64.33;99898.34;5109651;28;20040;-70
2024/01/10 07:48:00;;;;;;;6.35;3.60;;;;;;;0.53;63.31;99954.03;5090137;28;20036;-71
2024/01/10 07:50:30;;;;;;;6.50;3.88;;;;;;;1.69;62.19;99974.81;5095860;28;20126;-70
2024/01/10 07:53:01;;;;;;;6.38;3.25;;;;;;;2.89;61.22;99979.78;5089217;28;20039;-69
2024/01/10 07:55:29;;;;;;;6.03;3.35;;;;;;;3.26;62.11;99933.53;5075734;28;20043;-69
2024/01/10 07:57:58;;;;;;;5.65;2.83;;;;;;;4.89;62.12;99967.66;5075852;28;20066;-68
2024/01/10 08:00:31;;;;;;;4.95;3.17;;;;;;;5.98;60.22;99970.97;5089889;28;20361;-69
2024/01/10 08:02:58;;;;;;;6.50;2.83;;;;;;;6.85;56.73;99987.44;5091660;28;20159;-67
2024/01/10 08:05:24;;;;;;;5.82;2.90;;;;;;;7.23;54.94;99978.28;5088809;28;20043;-68
2024/01/10 08:07:54;;;;;;;6.18;3.00;;;;;;;7.87;55.43;99965.69;5087945;28;20044;-67
2024/01/10 08:10:22;;;;;;;6.55;3.30;;;;;;;8.95;53.22;99963.41;5090601;28;20565;-67
2024/01/10 08:12:48;;;;;;;5.70;3.40;;;;;;;9.13;50.13;99974.69;5091736;28;20058;-68
2024/01/10 08:15:19;;;;;;;5.93;3.58;;;;;;;9.69;50.99;99953.81;5091441;28;20080;-68
2024/01/10 08:17:46;;;;;;;8.07;3.78;;;;;;;10.24;49.18;99944.94;5094382;28;20040;-67
2024/01/10 08:20:14;;;;;;;6.53;3.67;;;;;;;10.69;47.54;99955.97;5078185;28;20040;-69
2024/01/10 08:22:44;;;;;;;6.63;4.03;;;;;;;10.95;46.96;99946.22;5112461;28;20099;-68
2024/01/10 08:25:10;;;;;;;5.65;3.90;;;;;;;12.03;46.67;99981.66;5097009;28;20051;-67
2024/01/10 08:27:49;;;;;;;9.77;4.65;;;;;;;12.15;46.14;99972.84;5113027;28;20525;-69
2024/01/10 08:30:18;;;;;;;10.35;5.40;;;;;;;12.03;45.93;99952.97;5084041;28;20110;-67
2024/01/10 08:32:44;;;;;;;6.55;4.20;;;;;;;11.34;45.51;99982.38;5076599;28;20118;-69
2024/01/10 08:35:12;;;;;;;6.70;3.78;;;;;;;9.77;45.01;99950.31;5095907;28;20374;-71
2024/01/10 08:37:42;;;;;;;6.38;3.78;;;;;;;8.57;44.38;99987.59;5063325;28;20035;-68
2024/01/10 08:40:17;;;;;;;6.18;3.67;;;;;;;7.19;45.12;99964.44;5088442;28;20457;-72
2024/01/10 08:42:48;;;;;;;6.72;3.47;;;;;;;6.73;46.32;99956.31;5067183;28;20052;-69
2024/01/10 08:45:15;;;;;;;5.97;3.63;;;;;;;7.79;46.40;99947.53;5096037;28;20488;-70
2024/01/10 08:47:44;;;;;;;6.70;3.65;;;;;;;9.43;46.09;99958.22;5096390;28;20039;-69
2024/01/10 08:50:10;;;;;;;6.60;3.17;;;;;;;10.57;44.63;99994.22;5076997;28;20075;-68
2024/01/10 08:52:42;;;;;;;7.65;3.42;;;;;;;10.60;41.85;99968.19;5113732;28;20042;-71
2024/01/10 08:55:11;;;;;;;4.30;3.20;;;;;;;10.75;42.75;100007.13;5097635;28;20332;-69
2024/01/10 08:57:45;;;;;;;5.07;3.55;;;;;;;11.39;41.36;99986.66;5065995;28;20969;-70
2024/01/10 09:00:16;;;;;;;5.10;3.22;;;;;;;12.40;41.60;99997.75;5107161;28;20454;-68
2024/01/10 09:02:45;;;;;;;6.32;4.35;;;;;;;13.30;40.35;99989.44;5094364;28;20173;-68
2024/01/10 09:05:12;;;;;;;6.07;3.65;;;;;;;12.81;36.23;99978.03;5098308;28;20047;-67
2024/01/10 09:07:38;;;;;;;4.30;3.38;;;;;;;11.77;37.13;99921.13;5092018;28;20040;-69
2024/01/10 09:10:07;;;;;;;8.77;3.58;;;;;;;12.28;36.32;99978.75;5080505;28;20056;-71
2024/01/10 09:12:33;;;;;;;8.85;4.22;;;;;;;13.18;36.50;99984.41;5096276;28;20102;-71
2024/01/10 09:15:08;;;;;;;5.90;4.05;;;;;;;13.97;36.17;99998.72;5095428;28;20045;-69
2024/01/10 09:17:44;;;;;;;6.60;4.10;;;;;;;13.61;35.55;100008.97;5079858;28;20043;-72
2024/01/10 09:20:15;;;;;;;9.32;4.53;;;;;;;12.93;32.75;99946.47;5077392;28;20277;-74
2024/01/10 09:22:41;;;;;;;6.03;3.67;;;;;;;13.13;35.21;100005.38;5096756;28;20047;-69
2024/01/10 09:25:13;;;;;;;6.20;3.95;;;;;;;13.70;34.14;100024.50;5066585;28;20059;-71
2024/01/10 09:27:44;;;;;;;5.40;3.80;;;;;;;14.35;34.59;100007.53;5077665;28;20040;-70
2024/01/10 09:30:16;;;;;;;7.50;3.80;;;;;;;15.09;33.83;100033.84;5092260;28;20040;-71
2024/01/10 09:32:42;;;;;;;6.22;4.07;;;;;;;15.35;32.55;100017.47;5095250;28;20042;-69
2024/01/10 09:35:12;;;;;;;6.32;4.00;;;;;;;15.28;32.25;100015.94;5093735;28;20046;-71
2024/01/10 09:37:45;;;;;;;7.57;4.07;;;;;;;14.86;31.70;100009.06;5064114;28;20051;-69
2024/01/10 09:40:18;;;;;;;6.47;4.40;;;;;;;14.81;31.88;100007.44;5093050;28;20039;-70
2024/01/10 09:42:54;;;;;;;5.70;3.83;;;;;;;14.26;31.35;100018.19;5096329;28;20051;-70
2024/01/10 09:45:22;;;;;;;9.13;3.95;;;;;;;14.44;31.50;100028.28;5079902;28;20043;-70
2024/01/10 09:48:02;;;;;;;5.80;3.63;;;;;;;14.55;31.33;99973.06;5064736;28;20039;-70
2024/01/10 09:50:31;;;;;;;6.35;4.10;;;;;;;14.68;30.74;99978.03;5112570;28;20099;-71
2024/01/10 09:53:23;;;;;;;7.43;3.92;;;;;;;13.71;29.90;99981.78;5112941;28;20032;-73
2024/01/10 09:55:56;;;;;;;6.90;4.47;;;;;;;13.65;29.31;100011.53;5095018;28;20078;-71
2024/01/10 09:58:27;;;;;;;6.57;4.63;;;;;;;12.71;29.81;99979.03;5085678;28;20032;-73
2024/01/10 10:01:05;;;;;;;8.65;4.72;;;;;;;11.89;30.51;99974.00;5096384;28;20036;-72
2024/01/10 10:06:41;;;;;;;7.15;4.03;;;;;;;10.30;31.24;99975.25;4966043;28;20043;-71
2024/01/10 10:09:08;;;;;;;6.63;4.40;;;;;;;10.87;31.35;100036.56;4966558;28;20043;-72
2024/01/10 10:11:37;;;;;;;6.60;4.70;;;;;;;10.55;30.96;99963.88;4966042;28;20290;-73
2024/01/10 10:14:18;;;;;;;7.20;4.93;;;;;;;11.01;30.95;100029.50;4953727;28;20150;-72
2024/01/10 10:16:47;;;;;;;8.55;4.97;;;;;;;10.05;31.20;100016.94;4947503;28;20047;-74
2024/01/10 10:19:25;;;;;;;9.63;5.20;;;;;;;8.41;31.54;100010.88;4958936;28;20039;-75
2024/01/10 10:21:51;;;;;;;9.95;5.82;;;;;;;7.28;32.23;99996.41;4967307;28;20102;-72
2024/01/10 10:24:18;;;;;;;10.15;5.55;;;;;;;6.80;32.63;100029.66;4946527;28;20532;-73
2024/01/10 10:26:48;;;;;;;7.70;5.20;;;;;;;6.05;33.70;100002.94;4968555;28;20047;-70
2024/01/10 10:29:19;;;;;;;7.03;4.53;;;;;;;5.62;33.28;100054.84;4974402;28;20039;-79
2024/01/10 10:31:49;;;;;;;7.38;4.30;;;;;;;4.90;33.67;100039.88;4963325;28;20053;-77
2024/01/10 10:34:22;;;;;;;10.32;4.75;;;;;;;4.47;34.49;100057.97;4957758;28;20039;-74
2024/01/10 10:36:50;;;;;;;11.00;5.50;;;;;;;3.52;35.40;100018.16;4946733;28;20109;-76
2024/01/10 10:39:18;;;;;;;10.07;6.00;;;;;;;3.42;35.69;100074.53;4974921;28;20062;-72
2024/01/10 10:41:57;;;;;;;13.43;6.05;;;;;;;2.86;36.21;100055.16;4941009;28;20043;-72
2024/01/10 10:44:28;;;;;;;10.77;5.80;;;;;;;2.78;37.15;100082.31;4961106;28;20046;-72
2024/01/10 10:47:32;;;;;;;8.45;4.53;;;;;;;2.33;36.85;100052.81;4961072;28;20054;-68
2024/01/10 10:50:38;;;;;;;9.98;5.07;;;;;;;1.92;37.69;100049.91;4943111;28;20034;-70
2024/01/10 10:53:12;;;;;;;9.60;4.35;;;;;;;1.58;38.21;100038.59;4944158;28;20027;-71
2024/01/10 10:56:00;;;;;;;9.13;4.10;;;;;;;1.38;38.71;100069.63;4946614;28;20074;-70
2024/01/10 10:58:56;;;;;;;8.93;4.55;;;;;;;1.15;39.22;100069.72;4967256;28;20042;-71
2024/01/10 11:01:54;;;;;;;7.68;4.50;;;;;;;0.83;39.43;100069.50;4951622;28;20077;-70
2024/01/10 11:04:47;;;;;;;11.00;4.97;;;;;;;0.41;40.00;100052.66;4971798;28;20066;-71
2024/01/10 11:07:12;;;;;;;;;;;;;;;0.14;40.18;100072.97;4970790;28;20068;-68
2024/01/10 11:10:13;;;;;;;10.45;4.80;;;;;;;-0.67;40.65;99989.75;4952730;28;19926;-70
2024/01/10 11:13:40;;;;;;;9.07;4.22;;;;;;;-0.39;41.44;100086.31;4947383;29;20051;-70
2024/01/10 11:16:56;;;;;;;9.40;4.82;;;;;;;-0.69;41.60;100083.41;4947769;29;20032;-69
2024/01/10 11:20:42;;;;;;;;;;;;;;;;;;;;;
2024/01/10 11:23:28;;;;;;;10.75;4.72;;;;;;;-1.39;42.26;100080.44;4902983;29;20111;-71
2024/01/10 11:25:54;;;;;;;7.35;4.63;;;;;;;-1.57;42.71;100076.28;4934290;29;20043;-70
2024/01/10 11:28:29;;;;;;;10.60;4.88;;;;;;;-2.13;43.06;100015.13;4935312;29;20043;-73
2024/01/10 11:31:05;;;;;;;9.02;4.55;;;;;;;-1.93;42.88;100073.81;4933313;29;20036;-70
2024/01/10 11:33:42;;;;;;;11.77;5.72;;;;;;;-2.98;43.82;99959.34;4932007;29;20128;-70
2024/01/10 11:36:29;;;;;;;9.18;4.72;;;;;;;-2.69;44.29;100067.72;4938445;28;20042;-70
2024/01/10 11:39:06;;;;;;;10.80;4.95;;;;;;;-2.80;44.49;100063.75;4952957;28;20042;-70
2024/01/10 11:41:50;;;;;;;12.65;5.50;;;;;;;-3.03;45.18;100064.38;4953674;28;20035;-71
2024/01/10 11:44:31;;;;;;;10.52;4.43;;;;;;;-2.79;45.35;100088.44;4926267;28;20215;-70
2024/01/10 11:47:27;;;;;;;7.82;4.40;;;;;;;-2.73;45.31;100084.50;4954068;28;20038;-70
2024/01/10 11:50:43;;;;;;;9.77;5.13;;;;;;;-2.97;45.59;100066.34;4940152;28;20934;-70
2024/01/10 11:53:11;;;;;;;11.23;4.72;;;;;;;-3.39;45.79;99972.63;4948420;28;20035;-70
2024/01/10 11:55:53;;;;;;;9.88;4.57;;;;;;;-2.67;45.87;100081.41;4956487;28;20035;-70
2024/01/10 11:58:29;;;;;;;11.73;5.30;;;;;;;-2.78;46.23;100087.63;4974535;28;20046;-70